Strona główna
METAR-TAF:

METAR-TAF

Lotnisko :

Port lotniczy Tanger

Tanger, Maroko

Szerokość geograficzna: 35-44N, Długość geograficzna: 005-54W, wysokość: 19 m

Aktualna obserwacja pogody

Raport powstał 23 minut temu, godzina 09:00 UTC
Wiatr 6 kt od południe, zmienny między południowy wschód i południowo-południowy zachód
Temperatura 16°C
Wilgotność 77%
Ciśnienie 1026 hPa
Widzialność 10 km lub więcej
Rozproszone chmury na wysokości 2100 ft
Rozproszone chmury na wysokości 2300 ft

METAR: GMTT 250900Z 17006KT 140V200 9999 SCT021 SCT023 16/12 Q1026 NOSIG

czas: 10:23 (09:23 UTC)

Prognoza

Raport powstał 4 godziny i 23 minut temu, godzina 05:00 UTC
Prognoza ważna od 25 godzina 06 UTC do 26 godzina 12 UTC
Wiatr 6 kt od południe
Widzialność: 6000 m
Przerywane chmury na wysokości 1300 ft
Prawdopodobieństwo 40%
od 26 godzina 01 UTC do 26 godzina 08 UTC
Widzialność: 4000 m
zamglenie

TAF: GMTT 250500Z 2506/2612 17006KT 6000 BKN013 PROB40 2601/2608 4000 BR

Obserwacja i prognoza pogody dla ponad 4000 lotnisk (raport METAR i TAF).

Dostępne stacje oznaczono żółtymi i czerwonymi punktami na mapie.

Najedź kursorem aby zobaczyć nazwę stacji.

Kliknij aby zobaczyć obserwacje i prognozy pogody.

Aby zmienić mapę: kliknij na zielony przycisk z czarnym krzyżykiem, aby powiększyć; na zielony przycisk z myślnikiem, aby pomniejszyć; na zielone strzałki, aby przejść do map sąsiednich.


METAR-TAF: